Terminal Aerodrome Forecast
Issued by NWS Twin Cities, MN

Home | Current Version | Previous Version | Text Only | Print | Product List | Glossary On
Versions: 1 2 3 4 5 6 7 8 9 10 11 12 13 14 15 16 17 18 19 20
000
FTUS43 KMPX 060526
TAFSTC
TAF
KSTC 060526Z 0606/0706 22007KT 4SM TSRA BR SCT008 BKN025CB OVC060
      TEMPO 0606/0607 1SM +TSRA BR OVC008CB
     FM061000 01007KT 6SM SHRA BR VCTS OVC015CB
     FM061700 34013G20KT P6SM -SHRA SCT015 OVC040
     FM062100 01012G18KT P6SM BKN100
     FM070000 32007KT P6SM SKC=

USA.gov is the U.S. government's official web portal to all federal, state and local government web resources and services.